sensor_id;sensor_type;location;lat;lon;timestamp;P1;durP1;ratioP1;P2;durP2;ratioP2
43529;SDS011;55654;50.966;6.878;2023-02-08T00:00:37;20.73;;;11.10;;
43529;SDS011;55654;50.966;6.878;2023-02-08T00:03:03;26.60;;;12.50;;
43529;SDS011;55654;50.966;6.878;2023-02-08T00:05:29;21.60;;;11.60;;
43529;SDS011;55654;50.966;6.878;2023-02-08T00:07:58;25.60;;;11.90;;
43529;SDS011;55654;50.966;6.878;2023-02-08T00:10:24;20.20;;;10.77;;
43529;SDS011;55654;50.966;6.878;2023-02-08T00:12:50;20.37;;;10.77;;
43529;SDS011;55654;50.966;6.878;2023-02-08T00:15:16;20.60;;;10.50;;
43529;SDS011;55654;50.966;6.878;2023-02-08T00:17:42;19.53;;;11.27;;
43529;SDS011;55654;50.966;6.878;2023-02-08T00:20:09;17.47;;;10.57;;
43529;SDS011;55654;50.966;6.878;2023-02-08T00:22:35;23.77;;;11.30;;
43529;SDS011;55654;50.966;6.878;2023-02-08T00:25:04;17.43;;;10.60;;
43529;SDS011;55654;50.966;6.878;2023-02-08T00:27:30;18.60;;;10.17;;
43529;SDS011;55654;50.966;6.878;2023-02-08T00:29:56;23.07;;;12.73;;
43529;SDS011;55654;50.966;6.878;2023-02-08T00:32:22;23.53;;;10.87;;
43529;SDS011;55654;50.966;6.878;2023-02-08T00:34:51;19.87;;;10.83;;
43529;SDS011;55654;50.966;6.878;2023-02-08T00:37:17;22.37;;;11.10;;
43529;SDS011;55654;50.966;6.878;2023-02-08T00:39:43;24.03;;;11.77;;
43529;SDS011;55654;50.966;6.878;2023-02-08T00:42:09;19.70;;;10.97;;
43529;SDS011;55654;50.966;6.878;2023-02-08T00:44:35;23.40;;;11.80;;
43529;SDS011;55654;50.966;6.878;2023-02-08T00:47:01;21.97;;;11.40;;
43529;SDS011;55654;50.966;6.878;2023-02-08T00:49:27;17.87;;;10.77;;
43529;SDS011;55654;50.966;6.878;2023-02-08T00:51:53;17.97;;;10.83;;
43529;SDS011;55654;50.966;6.878;2023-02-08T00:54:19;18.23;;;9.97;;
43529;SDS011;55654;50.966;6.878;2023-02-08T00:56:45;22.17;;;10.23;;
43529;SDS011;55654;50.966;6.878;2023-02-08T00:59:11;21.53;;;9.87;;
43529;SDS011;55654;50.966;6.878;2023-02-08T01:01:37;19.27;;;10.10;;
43529;SDS011;55654;50.966;6.878;2023-02-08T01:04:04;17.63;;;9.73;;
43529;SDS011;55654;50.966;6.878;2023-02-08T01:06:30;17.37;;;10.23;;
43529;SDS011;55654;50.966;6.878;2023-02-08T01:09:00;21.47;;;9.90;;
43529;SDS011;55654;50.966;6.878;2023-02-08T01:11:26;24.27;;;10.57;;
43529;SDS011;55654;50.966;6.878;2023-02-08T01:13:55;18.40;;;9.57;;
43529;SDS011;55654;50.966;6.878;2023-02-08T01:16:23;17.60;;;10.13;;
43529;SDS011;55654;50.966;6.878;2023-02-08T01:18:49;19.23;;;10.97;;
43529;SDS011;55654;50.966;6.878;2023-02-08T01:21:17;19.67;;;10.53;;
43529;SDS011;55654;50.966;6.878;2023-02-08T01:23:43;22.23;;;11.83;;
43529;SDS011;55654;50.966;6.878;2023-02-08T01:26:10;21.27;;;11.30;;
43529;SDS011;55654;50.966;6.878;2023-02-08T01:28:36;19.47;;;10.63;;
43529;SDS011;55654;50.966;6.878;2023-02-08T01:31:07;17.57;;;9.97;;
43529;SDS011;55654;50.966;6.878;2023-02-08T01:33:34;20.77;;;10.50;;
43529;SDS011;55654;50.966;6.878;2023-02-08T01:36:00;21.07;;;10.70;;
43529;SDS011;55654;50.966;6.878;2023-02-08T01:38:26;19.60;;;9.60;;
43529;SDS011;55654;50.966;6.878;2023-02-08T01:40:52;25.17;;;10.17;;
43529;SDS011;55654;50.966;6.878;2023-02-08T01:45:47;20.20;;;11.70;;
43529;SDS011;55654;50.966;6.878;2023-02-08T01:48:16;27.03;;;11.07;;
43529;SDS011;55654;50.966;6.878;2023-02-08T01:50:45;20.07;;;10.63;;
43529;SDS011;55654;50.966;6.878;2023-02-08T01:53:15;20.57;;;11.13;;
43529;SDS011;55654;50.966;6.878;2023-02-08T01:55:42;17.00;;;10.80;;
43529;SDS011;55654;50.966;6.878;2023-02-08T01:58:09;16.30;;;9.93;;
43529;SDS011;55654;50.966;6.878;2023-02-08T02:00:36;17.43;;;9.90;;
43529;SDS011;55654;50.966;6.878;2023-02-08T02:03:02;16.97;;;10.40;;
43529;SDS011;55654;50.966;6.878;2023-02-08T02:05:33;20.43;;;10.80;;
43529;SDS011;55654;50.966;6.878;2023-02-08T02:08:00;21.03;;;10.30;;
43529;SDS011;55654;50.966;6.878;2023-02-08T02:10:27;17.10;;;10.10;;
43529;SDS011;55654;50.966;6.878;2023-02-08T02:12:54;20.27;;;10.27;;
43529;SDS011;55654;50.966;6.878;2023-02-08T02:15:21;21.17;;;10.97;;
43529;SDS011;55654;50.966;6.878;2023-02-08T02:17:47;22.43;;;11.63;;
43529;SDS011;55654;50.966;6.878;2023-02-08T02:29:20;19.43;;;11.07;;
43529;SDS011;55654;50.966;6.878;2023-02-08T02:36:22;19.43;;;10.90;;
43529;SDS011;55654;50.966;6.878;2023-02-08T02:41:43;17.13;;;10.43;;
43529;SDS011;55654;50.966;6.878;2023-02-08T02:49:49;20.13;;;10.93;;
43529;SDS011;55654;50.966;6.878;2023-02-08T02:52:21;19.33;;;10.87;;
43529;SDS011;55654;50.966;6.878;2023-02-08T02:54:50;19.88;;;10.65;;
43529;SDS011;55654;50.966;6.878;2023-02-08T02:57:21;18.53;;;10.53;;
43529;SDS011;55654;50.966;6.878;2023-02-08T02:59:49;19.67;;;10.57;;
43529;SDS011;55654;50.966;6.878;2023-02-08T03:02:17;18.10;;;10.47;;
43529;SDS011;55654;50.966;6.878;2023-02-08T03:14:53;20.33;;;11.27;;
43529;SDS011;55654;50.966;6.878;2023-02-08T03:20:08;20.30;;;10.57;;
43529;SDS011;55654;50.966;6.878;2023-02-08T03:25:02;25.40;;;11.93;;
43529;SDS011;55654;50.966;6.878;2023-02-08T03:27:35;22.50;;;12.13;;
43529;SDS011;55654;50.966;6.878;2023-02-08T03:30:10;18.67;;;10.57;;
43529;SDS011;55654;50.966;6.878;2023-02-08T03:32:39;23.15;;;11.68;;
43529;SDS011;55654;50.966;6.878;2023-02-08T03:35:51;20.57;;;12.00;;
43529;SDS011;55654;50.966;6.878;2023-02-08T03:38:16;22.60;;;11.33;;
43529;SDS011;55654;50.966;6.878;2023-02-08T03:40:45;22.17;;;12.03;;
43529;SDS011;55654;50.966;6.878;2023-02-08T03:45:49;21.15;;;11.90;;
43529;SDS011;55654;50.966;6.878;2023-02-08T03:48:16;21.03;;;11.93;;
43529;SDS011;55654;50.966;6.878;2023-02-08T03:50:44;22.90;;;11.87;;
43529;SDS011;55654;50.966;6.878;2023-02-08T03:53:12;23.53;;;11.37;;
43529;SDS011;55654;50.966;6.878;2023-02-08T03:55:42;22.17;;;11.83;;
43529;SDS011;55654;50.966;6.878;2023-02-08T03:58:27;22.57;;;12.17;;
43529;SDS011;55654;50.966;6.878;2023-02-08T04:01:31;19.97;;;11.13;;
43529;SDS011;55654;50.966;6.878;2023-02-08T04:03:48;23.50;;;12.35;;
43529;SDS011;55654;50.966;6.878;2023-02-08T04:06:17;22.27;;;11.03;;
43529;SDS011;55654;50.966;6.878;2023-02-08T04:08:43;19.70;;;10.80;;
43529;SDS011;55654;50.966;6.878;2023-02-08T04:11:12;20.93;;;11.43;;
43529;SDS011;55654;50.966;6.878;2023-02-08T04:13:37;19.30;;;10.90;;
43529;SDS011;55654;50.966;6.878;2023-02-08T04:16:03;22.03;;;11.63;;
43529;SDS011;55654;50.966;6.878;2023-02-08T04:18:30;20.30;;;11.20;;
43529;SDS011;55654;50.966;6.878;2023-02-08T04:20:56;24.97;;;11.47;;
43529;SDS011;55654;50.966;6.878;2023-02-08T04:23:22;20.80;;;11.03;;
43529;SDS011;55654;50.966;6.878;2023-02-08T04:25:48;16.33;;;10.73;;
43529;SDS011;55654;50.966;6.878;2023-02-08T04:28:13;19.20;;;10.80;;
43529;SDS011;55654;50.966;6.878;2023-02-08T04:30:42;18.60;;;10.73;;
43529;SDS011;55654;50.966;6.878;2023-02-08T04:33:08;16.63;;;9.83;;
43529;SDS011;55654;50.966;6.878;2023-02-08T04:35:35;21.67;;;11.00;;
43529;SDS011;55654;50.966;6.878;2023-02-08T04:38:01;18.47;;;9.87;;
43529;SDS011;55654;50.966;6.878;2023-02-08T04:40:27;17.20;;;9.70;;
43529;SDS011;55654;50.966;6.878;2023-02-08T04:42:53;18.23;;;9.77;;
43529;SDS011;55654;50.966;6.878;2023-02-08T04:45:19;19.40;;;10.87;;
43529;SDS011;55654;50.966;6.878;2023-02-08T04:47:45;18.80;;;10.60;;
43529;SDS011;55654;50.966;6.878;2023-02-08T04:50:11;19.17;;;11.23;;
43529;SDS011;55654;50.966;6.878;2023-02-08T04:52:37;20.23;;;10.53;;
43529;SDS011;55654;50.966;6.878;2023-02-08T04:55:03;16.93;;;10.57;;
43529;SDS011;55654;50.966;6.878;2023-02-08T04:57:32;17.73;;;10.07;;
43529;SDS011;55654;50.966;6.878;2023-02-08T04:59:58;19.93;;;10.97;;
43529;SDS011;55654;50.966;6.878;2023-02-08T05:02:24;18.53;;;10.50;;
43529;SDS011;55654;50.966;6.878;2023-02-08T05:04:50;17.47;;;9.93;;
43529;SDS011;55654;50.966;6.878;2023-02-08T05:07:16;23.13;;;10.70;;
43529;SDS011;55654;50.966;6.878;2023-02-08T05:09:42;19.47;;;10.23;;
43529;SDS011;55654;50.966;6.878;2023-02-08T05:12:08;21.20;;;11.37;;
43529;SDS011;55654;50.966;6.878;2023-02-08T05:14:34;19.70;;;10.27;;
43529;SDS011;55654;50.966;6.878;2023-02-08T05:17:00;18.93;;;11.17;;
43529;SDS011;55654;50.966;6.878;2023-02-08T05:19:26;21.47;;;11.17;;
43529;SDS011;55654;50.966;6.878;2023-02-08T05:21:52;22.23;;;10.77;;
43529;SDS011;55654;50.966;6.878;2023-02-08T05:24:18;21.00;;;10.97;;
43529;SDS011;55654;50.966;6.878;2023-02-08T05:26:44;18.97;;;10.87;;
43529;SDS011;55654;50.966;6.878;2023-02-08T05:29:10;21.50;;;10.67;;
43529;SDS011;55654;50.966;6.878;2023-02-08T05:31:35;22.13;;;10.27;;
43529;SDS011;55654;50.966;6.878;2023-02-08T05:34:04;20.90;;;10.47;;
43529;SDS011;55654;50.966;6.878;2023-02-08T05:36:30;20.73;;;10.23;;
43529;SDS011;55654;50.966;6.878;2023-02-08T05:38:56;22.23;;;10.23;;
43529;SDS011;55654;50.966;6.878;2023-02-08T05:41:22;23.30;;;10.27;;
43529;SDS011;55654;50.966;6.878;2023-02-08T05:43:48;21.23;;;11.37;;
43529;SDS011;55654;50.966;6.878;2023-02-08T05:46:16;19.60;;;10.43;;
43529;SDS011;55654;50.966;6.878;2023-02-08T05:48:42;19.43;;;10.33;;
43529;SDS011;55654;50.966;6.878;2023-02-08T05:51:08;22.57;;;11.87;;
43529;SDS011;55654;50.966;6.878;2023-02-08T05:53:36;20.13;;;10.13;;
43529;SDS011;55654;50.966;6.878;2023-02-08T05:56:02;18.60;;;10.40;;
43529;SDS011;55654;50.966;6.878;2023-02-08T05:58:28;20.03;;;11.10;;
43529;SDS011;55654;50.966;6.878;2023-02-08T06:00:54;19.83;;;10.93;;
43529;SDS011;55654;50.966;6.878;2023-02-08T06:03:21;17.83;;;10.43;;
43529;SDS011;55654;50.966;6.878;2023-02-08T06:05:47;20.17;;;10.70;;
43529;SDS011;55654;50.966;6.878;2023-02-08T06:08:13;20.77;;;11.10;;
43529;SDS011;55654;50.966;6.878;2023-02-08T06:10:39;19.27;;;10.57;;
43529;SDS011;55654;50.966;6.878;2023-02-08T06:13:12;21.87;;;11.20;;
43529;SDS011;55654;50.966;6.878;2023-02-08T06:15:38;23.93;;;10.80;;
43529;SDS011;55654;50.966;6.878;2023-02-08T06:18:04;25.13;;;11.47;;
43529;SDS011;55654;50.966;6.878;2023-02-08T06:20:30;17.17;;;10.53;;
43529;SDS011;55654;50.966;6.878;2023-02-08T06:22:56;17.40;;;10.10;;
43529;SDS011;55654;50.966;6.878;2023-02-08T06:25:22;20.63;;;11.60;;
43529;SDS011;55654;50.966;6.878;2023-02-08T06:27:48;20.63;;;10.83;;
43529;SDS011;55654;50.966;6.878;2023-02-08T06:30:14;21.03;;;11.03;;
43529;SDS011;55654;50.966;6.878;2023-02-08T06:32:42;23.30;;;11.40;;
43529;SDS011;55654;50.966;6.878;2023-02-08T06:35:08;24.33;;;10.90;;
43529;SDS011;55654;50.966;6.878;2023-02-08T06:37:34;20.30;;;10.60;;
43529;SDS011;55654;50.966;6.878;2023-02-08T06:40:00;22.40;;;10.77;;
43529;SDS011;55654;50.966;6.878;2023-02-08T06:42:26;20.53;;;11.00;;
43529;SDS011;55654;50.966;6.878;2023-02-08T06:44:53;21.23;;;10.73;;
43529;SDS011;55654;50.966;6.878;2023-02-08T06:47:20;19.10;;;11.30;;
43529;SDS011;55654;50.966;6.878;2023-02-08T06:49:46;23.73;;;12.10;;
43529;SDS011;55654;50.966;6.878;2023-02-08T06:52:14;19.60;;;11.30;;
43529;SDS011;55654;50.966;6.878;2023-02-08T06:54:40;23.97;;;11.37;;
43529;SDS011;55654;50.966;6.878;2023-02-08T06:57:09;18.77;;;11.27;;
43529;SDS011;55654;50.966;6.878;2023-02-08T06:59:41;17.43;;;10.07;;
43529;SDS011;55654;50.966;6.878;2023-02-08T07:02:11;22.17;;;10.23;;
43529;SDS011;55654;50.966;6.878;2023-02-08T07:04:37;16.83;;;9.63;;
43529;SDS011;55654;50.966;6.878;2023-02-08T07:07:03;22.73;;;11.27;;
43529;SDS011;55654;50.966;6.878;2023-02-08T07:09:35;19.47;;;10.00;;
43529;SDS011;55654;50.966;6.878;2023-02-08T07:12:01;21.53;;;10.90;;
43529;SDS011;55654;50.966;6.878;2023-02-08T07:14:34;15.07;;;9.30;;
43529;SDS011;55654;50.966;6.878;2023-02-08T07:17:01;16.33;;;9.00;;
43529;SDS011;55654;50.966;6.878;2023-02-08T07:19:29;24.83;;;11.70;;
43529;SDS011;55654;50.966;6.878;2023-02-08T07:21:55;19.83;;;10.37;;
43529;SDS011;55654;50.966;6.878;2023-02-08T07:24:22;20.27;;;9.97;;
43529;SDS011;55654;50.966;6.878;2023-02-08T07:26:48;16.83;;;9.50;;
43529;SDS011;55654;50.966;6.878;2023-02-08T07:29:16;21.53;;;10.20;;
43529;SDS011;55654;50.966;6.878;2023-02-08T07:31:42;19.50;;;9.63;;
43529;SDS011;55654;50.966;6.878;2023-02-08T07:34:08;20.23;;;10.07;;
43529;SDS011;55654;50.966;6.878;2023-02-08T07:36:34;14.60;;;8.20;;
43529;SDS011;55654;50.966;6.878;2023-02-08T07:39:00;21.37;;;9.77;;
43529;SDS011;55654;50.966;6.878;2023-02-08T07:41:26;32.50;;;12.93;;
43529;SDS011;55654;50.966;6.878;2023-02-08T07:43:55;24.27;;;12.03;;
43529;SDS011;55654;50.966;6.878;2023-02-08T07:46:21;19.77;;;10.03;;
43529;SDS011;55654;50.966;6.878;2023-02-08T07:48:47;28.17;;;14.43;;
43529;SDS011;55654;50.966;6.878;2023-02-08T07:51:14;19.37;;;8.90;;
43529;SDS011;55654;50.966;6.878;2023-02-08T07:53:40;18.07;;;8.67;;
43529;SDS011;55654;50.966;6.878;2023-02-08T07:56:06;16.50;;;7.77;;
43529;SDS011;55654;50.966;6.878;2023-02-08T07:58:34;19.73;;;8.93;;
43529;SDS011;55654;50.966;6.878;2023-02-08T08:01:00;15.17;;;8.80;;
43529;SDS011;55654;50.966;6.878;2023-02-08T08:03:26;18.63;;;8.57;;
43529;SDS011;55654;50.966;6.878;2023-02-08T08:05:52;16.03;;;9.07;;
43529;SDS011;55654;50.966;6.878;2023-02-08T08:08:23;20.90;;;7.90;;
43529;SDS011;55654;50.966;6.878;2023-02-08T08:10:49;18.20;;;8.87;;
43529;SDS011;55654;50.966;6.878;2023-02-08T08:13:15;15.00;;;7.77;;
43529;SDS011;55654;50.966;6.878;2023-02-08T08:15:43;16.73;;;7.90;;
43529;SDS011;55654;50.966;6.878;2023-02-08T08:18:09;19.30;;;9.40;;
43529;SDS011;55654;50.966;6.878;2023-02-08T08:20:35;14.23;;;7.43;;
43529;SDS011;55654;50.966;6.878;2023-02-08T08:23:02;16.30;;;8.20;;
43529;SDS011;55654;50.966;6.878;2023-02-08T08:25:31;21.07;;;8.07;;
43529;SDS011;55654;50.966;6.878;2023-02-08T08:27:57;16.90;;;8.60;;
43529;SDS011;55654;50.966;6.878;2023-02-08T08:30:23;17.10;;;7.60;;
43529;SDS011;55654;50.966;6.878;2023-02-08T08:32:52;18.50;;;8.40;;
43529;SDS011;55654;50.966;6.878;2023-02-08T08:35:18;16.90;;;8.23;;
43529;SDS011;55654;50.966;6.878;2023-02-08T08:37:44;14.33;;;8.33;;
43529;SDS011;55654;50.966;6.878;2023-02-08T08:40:10;18.77;;;8.77;;
43529;SDS011;55654;50.966;6.878;2023-02-08T08:42:36;17.07;;;8.03;;
43529;SDS011;55654;50.966;6.878;2023-02-08T08:45:04;15.53;;;8.00;;
43529;SDS011;55654;50.966;6.878;2023-02-08T08:47:30;16.33;;;7.83;;
43529;SDS011;55654;50.966;6.878;2023-02-08T08:49:56;15.83;;;8.50;;
43529;SDS011;55654;50.966;6.878;2023-02-08T08:52:22;14.93;;;8.13;;
43529;SDS011;55654;50.966;6.878;2023-02-08T08:54:48;15.13;;;7.23;;
43529;SDS011;55654;50.966;6.878;2023-02-08T08:57:14;13.90;;;8.00;;
43529;SDS011;55654;50.966;6.878;2023-02-08T08:59:40;15.10;;;7.93;;
43529;SDS011;55654;50.966;6.878;2023-02-08T09:02:06;13.93;;;6.83;;
43529;SDS011;55654;50.966;6.878;2023-02-08T09:04:32;15.10;;;6.97;;
43529;SDS011;55654;50.966;6.878;2023-02-08T09:06:58;11.33;;;6.77;;
43529;SDS011;55654;50.966;6.878;2023-02-08T09:09:24;10.43;;;6.00;;
43529;SDS011;55654;50.966;6.878;2023-02-08T09:11:53;15.80;;;6.70;;
43529;SDS011;55654;50.966;6.878;2023-02-08T09:14:19;13.27;;;7.10;;
43529;SDS011;55654;50.966;6.878;2023-02-08T09:16:47;11.93;;;7.50;;
43529;SDS011;55654;50.966;6.878;2023-02-08T09:19:13;12.33;;;7.27;;
43529;SDS011;55654;50.966;6.878;2023-02-08T09:21:40;12.83;;;6.23;;
43529;SDS011;55654;50.966;6.878;2023-02-08T09:24:06;10.43;;;6.47;;
43529;SDS011;55654;50.966;6.878;2023-02-08T09:26:32;13.23;;;7.03;;
43529;SDS011;55654;50.966;6.878;2023-02-08T09:28:59;12.73;;;7.10;;
43529;SDS011;55654;50.966;6.878;2023-02-08T09:31:32;9.50;;;6.07;;
43529;SDS011;55654;50.966;6.878;2023-02-08T09:34:00;10.90;;;6.60;;
43529;SDS011;55654;50.966;6.878;2023-02-08T09:36:28;11.00;;;6.40;;
43529;SDS011;55654;50.966;6.878;2023-02-08T09:38:55;12.13;;;7.17;;
43529;SDS011;55654;50.966;6.878;2023-02-08T09:43:55;9.77;;;5.60;;
43529;SDS011;55654;50.966;6.878;2023-02-08T09:46:25;12.03;;;6.10;;
43529;SDS011;55654;50.966;6.878;2023-02-08T09:48:53;12.40;;;6.73;;
43529;SDS011;55654;50.966;6.878;2023-02-08T09:53:51;46.07;;;23.47;;
43529;SDS011;55654;50.966;6.878;2023-02-08T09:56:21;26.70;;;14.17;;
43529;SDS011;55654;50.966;6.878;2023-02-08T09:58:51;18.50;;;10.83;;
43529;SDS011;55654;50.966;6.878;2023-02-08T10:01:27;13.47;;;8.47;;
43529;SDS011;55654;50.966;6.878;2023-02-08T10:04:05;16.43;;;9.07;;
43529;SDS011;55654;50.966;6.878;2023-02-08T10:06:33;11.77;;;6.60;;
43529;SDS011;55654;50.966;6.878;2023-02-08T10:09:01;13.57;;;6.70;;
43529;SDS011;55654;50.966;6.878;2023-02-08T10:26:43;11.27;;;6.10;;
43529;SDS011;55654;50.966;6.878;2023-02-08T10:32:12;10.57;;;6.20;;
43529;SDS011;55654;50.966;6.878;2023-02-08T10:34:46;10.90;;;6.57;;
43529;SDS011;55654;50.966;6.878;2023-02-08T10:39:40;11.23;;;6.03;;
43529;SDS011;55654;50.966;6.878;2023-02-08T10:42:11;12.30;;;6.90;;
43529;SDS011;55654;50.966;6.878;2023-02-08T10:44:50;9.47;;;5.53;;
43529;SDS011;55654;50.966;6.878;2023-02-08T10:47:32;10.17;;;6.00;;
43529;SDS011;55654;50.966;6.878;2023-02-08T10:50:15;10.63;;;6.10;;
43529;SDS011;55654;50.966;6.878;2023-02-08T10:52:44;12.13;;;6.23;;
43529;SDS011;55654;50.966;6.878;2023-02-08T10:55:14;9.07;;;5.60;;
43529;SDS011;55654;50.966;6.878;2023-02-08T10:57:40;14.97;;;6.47;;
43529;SDS011;55654;50.966;6.878;2023-02-08T11:00:09;13.27;;;6.50;;
43529;SDS011;55654;50.966;6.878;2023-02-08T11:02:39;11.63;;;6.90;;
43529;SDS011;55654;50.966;6.878;2023-02-08T11:05:51;10.53;;;6.30;;
43529;SDS011;55654;50.966;6.878;2023-02-08T11:08:08;11.83;;;6.40;;
43529;SDS011;55654;50.966;6.878;2023-02-08T11:10:35;13.87;;;5.77;;
43529;SDS011;55654;50.966;6.878;2023-02-08T11:18:19;12.03;;;6.57;;
43529;SDS011;55654;50.966;6.878;2023-02-08T11:20:46;12.53;;;5.83;;
43529;SDS011;55654;50.966;6.878;2023-02-08T11:23:18;10.87;;;6.43;;
43529;SDS011;55654;50.966;6.878;2023-02-08T11:25:45;10.25;;;4.93;;
43529;SDS011;55654;50.966;6.878;2023-02-08T11:31:17;7.80;;;5.07;;
43529;SDS011;55654;50.966;6.878;2023-02-08T11:34:01;9.70;;;6.00;;
43529;SDS011;55654;50.966;6.878;2023-02-08T11:36:27;8.13;;;5.43;;
43529;SDS011;55654;50.966;6.878;2023-02-08T11:38:54;11.77;;;5.70;;
43529;SDS011;55654;50.966;6.878;2023-02-08T11:41:20;11.10;;;5.20;;
43529;SDS011;55654;50.966;6.878;2023-02-08T11:44:05;9.20;;;4.80;;
43529;SDS011;55654;50.966;6.878;2023-02-08T11:46:33;8.23;;;5.17;;
43529;SDS011;55654;50.966;6.878;2023-02-08T11:49:00;10.97;;;5.40;;
43529;SDS011;55654;50.966;6.878;2023-02-08T11:53:53;10.97;;;5.37;;
43529;SDS011;55654;50.966;6.878;2023-02-08T11:56:24;10.63;;;5.03;;
43529;SDS011;55654;50.966;6.878;2023-02-08T11:59:16;7.83;;;4.93;;
43529;SDS011;55654;50.966;6.878;2023-02-08T12:01:40;8.10;;;4.67;;
43529;SDS011;55654;50.966;6.878;2023-02-08T12:04:07;14.30;;;5.33;;
43529;SDS011;55654;50.966;6.878;2023-02-08T12:11:48;9.73;;;4.13;;
43529;SDS011;55654;50.966;6.878;2023-02-08T12:14:19;9.43;;;4.97;;
43529;SDS011;55654;50.966;6.878;2023-02-08T12:16:55;10.75;;;4.55;;
43529;SDS011;55654;50.966;6.878;2023-02-08T12:19:27;8.77;;;4.20;;
43529;SDS011;55654;50.966;6.878;2023-02-08T12:24:28;8.43;;;4.00;;
43529;SDS011;55654;50.966;6.878;2023-02-08T12:37:02;5.78;;;3.83;;
43529;SDS011;55654;50.966;6.878;2023-02-08T12:42:48;7.30;;;3.40;;
43529;SDS011;55654;50.966;6.878;2023-02-08T12:45:32;6.97;;;4.03;;
43529;SDS011;55654;50.966;6.878;2023-02-08T12:48:08;6.17;;;3.57;;
43529;SDS011;55654;50.966;6.878;2023-02-08T12:53:04;7.77;;;3.70;;
43529;SDS011;55654;50.966;6.878;2023-02-08T12:55:36;5.77;;;3.30;;
43529;SDS011;55654;50.966;6.878;2023-02-08T12:58:18;7.03;;;3.73;;
43529;SDS011;55654;50.966;6.878;2023-02-08T13:00:46;7.90;;;3.40;;
43529;SDS011;55654;50.966;6.878;2023-02-08T13:03:16;5.40;;;3.20;;
43529;SDS011;55654;50.966;6.878;2023-02-08T13:05:47;7.23;;;3.70;;
43529;SDS011;55654;50.966;6.878;2023-02-08T13:10:43;6.10;;;3.43;;
43529;SDS011;55654;50.966;6.878;2023-02-08T13:13:19;8.13;;;3.43;;
43529;SDS011;55654;50.966;6.878;2023-02-08T13:25:53;6.23;;;3.80;;
43529;SDS011;55654;50.966;6.878;2023-02-08T13:28:21;6.43;;;3.83;;
43529;SDS011;55654;50.966;6.878;2023-02-08T13:30:51;10.57;;;5.60;;
43529;SDS011;55654;50.966;6.878;2023-02-08T13:33:21;10.13;;;5.30;;
43529;SDS011;55654;50.966;6.878;2023-02-08T13:35:50;4.50;;;3.15;;
43529;SDS011;55654;50.966;6.878;2023-02-08T13:40:49;5.80;;;4.35;;
43529;SDS011;55654;50.966;6.878;2023-02-08T13:43:33;5.50;;;3.40;;
43529;SDS011;55654;50.966;6.878;2023-02-08T13:46:03;7.07;;;3.50;;
43529;SDS011;55654;50.966;6.878;2023-02-08T13:48:39;15.70;;;3.63;;
43529;SDS011;55654;50.966;6.878;2023-02-08T13:51:05;7.10;;;3.23;;
43529;SDS011;55654;50.966;6.878;2023-02-08T13:54:14;6.60;;;2.90;;
43529;SDS011;55654;50.966;6.878;2023-02-08T13:59:22;4.70;;;2.93;;
43529;SDS011;55654;50.966;6.878;2023-02-08T14:04:46;5.23;;;2.73;;
43529;SDS011;55654;50.966;6.878;2023-02-08T14:07:21;2.97;;;2.63;;
43529;SDS011;55654;50.966;6.878;2023-02-08T14:09:52;5.80;;;2.53;;
43529;SDS011;55654;50.966;6.878;2023-02-08T14:12:26;5.47;;;2.80;;
43529;SDS011;55654;50.966;6.878;2023-02-08T14:17:41;5.63;;;2.63;;
43529;SDS011;55654;50.966;6.878;2023-02-08T14:20:15;5.30;;;3.27;;
43529;SDS011;55654;50.966;6.878;2023-02-08T14:22:47;4.50;;;3.00;;
43529;SDS011;55654;50.966;6.878;2023-02-08T14:27:56;6.37;;;2.60;;
43529;SDS011;55654;50.966;6.878;2023-02-08T14:30:32;5.90;;;3.03;;
43529;SDS011;55654;50.966;6.878;2023-02-08T14:35:31;7.25;;;4.20;;
43529;SDS011;55654;50.966;6.878;2023-02-08T14:40:49;6.67;;;3.07;;
43529;SDS011;55654;50.966;6.878;2023-02-08T14:45:45;8.07;;;2.70;;
43529;SDS011;55654;50.966;6.878;2023-02-08T14:50:40;9.70;;;3.53;;
43529;SDS011;55654;50.966;6.878;2023-02-08T14:55:43;7.80;;;3.20;;
43529;SDS011;55654;50.966;6.878;2023-02-08T14:58:11;4.43;;;2.37;;
43529;SDS011;55654;50.966;6.878;2023-02-08T15:00:39;7.00;;;2.40;;
43529;SDS011;55654;50.966;6.878;2023-02-08T15:03:06;4.30;;;1.97;;
43529;SDS011;55654;50.966;6.878;2023-02-08T15:05:40;5.82;;;2.15;;
43529;SDS011;55654;50.966;6.878;2023-02-08T15:08:10;7.05;;;2.22;;
43529;SDS011;55654;50.966;6.878;2023-02-08T15:10:36;2.27;;;1.73;;
43529;SDS011;55654;50.966;6.878;2023-02-08T15:13:05;3.23;;;1.77;;
43529;SDS011;55654;50.966;6.878;2023-02-08T15:15:42;4.57;;;1.50;;
43529;SDS011;55654;50.966;6.878;2023-02-08T15:18:20;5.70;;;2.37;;
43529;SDS011;55654;50.966;6.878;2023-02-08T15:20:54;3.70;;;2.00;;
43529;SDS011;55654;50.966;6.878;2023-02-08T15:23:23;4.40;;;1.90;;
43529;SDS011;55654;50.966;6.878;2023-02-08T15:26:31;4.70;;;2.37;;
43529;SDS011;55654;50.966;6.878;2023-02-08T15:28:38;3.13;;;1.90;;
43529;SDS011;55654;50.966;6.878;2023-02-08T15:31:11;4.57;;;2.20;;
43529;SDS011;55654;50.966;6.878;2023-02-08T15:33:41;3.17;;;1.77;;
43529;SDS011;55654;50.966;6.878;2023-02-08T15:36:21;6.03;;;1.90;;
43529;SDS011;55654;50.966;6.878;2023-02-08T15:38:50;4.75;;;2.58;;
43529;SDS011;55654;50.966;6.878;2023-02-08T15:41:23;4.03;;;2.20;;
43529;SDS011;55654;50.966;6.878;2023-02-08T15:43:58;4.40;;;1.90;;
43529;SDS011;55654;50.966;6.878;2023-02-08T15:46:27;8.17;;;2.30;;
43529;SDS011;55654;50.966;6.878;2023-02-08T15:48:54;3.60;;;2.37;;
43529;SDS011;55654;50.966;6.878;2023-02-08T15:51:23;3.87;;;2.27;;
43529;SDS011;55654;50.966;6.878;2023-02-08T15:53:52;4.67;;;2.30;;
43529;SDS011;55654;50.966;6.878;2023-02-08T15:56:20;3.70;;;2.20;;
43529;SDS011;55654;50.966;6.878;2023-02-08T15:58:48;13.43;;;3.17;;
43529;SDS011;55654;50.966;6.878;2023-02-08T16:01:18;17.97;;;3.10;;
43529;SDS011;55654;50.966;6.878;2023-02-08T16:03:45;7.53;;;2.50;;
43529;SDS011;55654;50.966;6.878;2023-02-08T16:06:12;4.37;;;2.20;;
43529;SDS011;55654;50.966;6.878;2023-02-08T16:08:38;4.73;;;2.20;;
43529;SDS011;55654;50.966;6.878;2023-02-08T16:13:33;3.87;;;2.33;;
43529;SDS011;55654;50.966;6.878;2023-02-08T16:16:20;4.20;;;2.40;;
43529;SDS011;55654;50.966;6.878;2023-02-08T16:18:47;5.93;;;2.90;;
43529;SDS011;55654;50.966;6.878;2023-02-08T16:23:53;4.43;;;2.20;;
43529;SDS011;55654;50.966;6.878;2023-02-08T16:26:27;4.00;;;2.23;;
43529;SDS011;55654;50.966;6.878;2023-02-08T16:28:57;4.33;;;2.20;;
43529;SDS011;55654;50.966;6.878;2023-02-08T16:31:24;3.33;;;2.30;;
43529;SDS011;55654;50.966;6.878;2023-02-08T16:33:56;5.33;;;2.97;;
43529;SDS011;55654;50.966;6.878;2023-02-08T16:36:23;4.23;;;2.30;;
43529;SDS011;55654;50.966;6.878;2023-02-08T16:44:23;4.90;;;2.70;;
43529;SDS011;55654;50.966;6.878;2023-02-08T16:46:50;4.23;;;2.53;;
43529;SDS011;55654;50.966;6.878;2023-02-08T16:49:16;6.67;;;2.87;;
43529;SDS011;55654;50.966;6.878;2023-02-08T16:51:42;4.97;;;2.60;;
43529;SDS011;55654;50.966;6.878;2023-02-08T16:54:18;6.67;;;3.43;;
43529;SDS011;55654;50.966;6.878;2023-02-08T16:56:45;9.10;;;3.30;;
43529;SDS011;55654;50.966;6.878;2023-02-08T16:59:14;6.17;;;3.47;;
43529;SDS011;55654;50.966;6.878;2023-02-08T17:01:40;4.73;;;3.03;;
43529;SDS011;55654;50.966;6.878;2023-02-08T17:04:10;6.57;;;3.33;;
43529;SDS011;55654;50.966;6.878;2023-02-08T17:06:36;5.93;;;3.30;;
43529;SDS011;55654;50.966;6.878;2023-02-08T17:09:04;6.20;;;3.73;;
43529;SDS011;55654;50.966;6.878;2023-02-08T17:11:30;6.73;;;3.87;;
43529;SDS011;55654;50.966;6.878;2023-02-08T17:13:56;7.73;;;3.20;;